sensor_id;sensor_type;location;lat;lon;timestamp;temperature;humidity
22795;DHT22;11564;50.920;11.612;2023-04-29T00:01:04;10.60;99.90
22795;DHT22;11564;50.920;11.612;2023-04-29T00:03:30;10.80;99.90
22795;DHT22;11564;50.920;11.612;2023-04-29T00:05:59;10.80;99.90
22795;DHT22;11564;50.920;11.612;2023-04-29T00:08:24;10.80;99.90
22795;DHT22;11564;50.920;11.612;2023-04-29T00:10:50;10.70;99.90
22795;DHT22;11564;50.920;11.612;2023-04-29T00:13:15;10.80;99.90
22795;DHT22;11564;50.920;11.612;2023-04-29T00:15:41;11.00;99.90
22795;DHT22;11564;50.920;11.612;2023-04-29T00:18:07;11.50;99.90
22795;DHT22;11564;50.920;11.612;2023-04-29T00:20:33;11.70;99.90
22795;DHT22;11564;50.920;11.612;2023-04-29T00:22:59;11.90;99.90
22795;DHT22;11564;50.920;11.612;2023-04-29T00:25:24;11.90;99.90
22795;DHT22;11564;50.920;11.612;2023-04-29T00:27:50;11.80;99.90
22795;DHT22;11564;50.920;11.612;2023-04-29T00:30:15;11.80;99.90
22795;DHT22;11564;50.920;11.612;2023-04-29T00:32:41;11.90;99.90
22795;DHT22;11564;50.920;11.612;2023-04-29T00:35:08;12.00;99.90
22795;DHT22;11564;50.920;11.612;2023-04-29T00:37:33;12.00;99.90
22795;DHT22;11564;50.920;11.612;2023-04-29T00:39:59;12.00;99.90
22795;DHT22;11564;50.920;11.612;2023-04-29T00:42:24;12.00;99.90
22795;DHT22;11564;50.920;11.612;2023-04-29T00:44:50;12.00;99.90
22795;DHT22;11564;50.920;11.612;2023-04-29T00:47:16;12.00;99.90
22795;DHT22;11564;50.920;11.612;2023-04-29T00:49:41;11.90;99.90
22795;DHT22;11564;50.920;11.612;2023-04-29T00:52:07;12.00;99.90
22795;DHT22;11564;50.920;11.612;2023-04-29T00:54:34;11.90;99.90
22795;DHT22;11564;50.920;11.612;2023-04-29T00:57:01;11.90;99.90
22795;DHT22;11564;50.920;11.612;2023-04-29T00:59:28;11.80;99.90
22795;DHT22;11564;50.920;11.612;2023-04-29T01:01:58;11.80;99.90
22795;DHT22;11564;50.920;11.612;2023-04-29T01:04:24;11.80;99.90
22795;DHT22;11564;50.920;11.612;2023-04-29T01:07:13;11.70;99.90
22795;DHT22;11564;50.920;11.612;2023-04-29T01:15:02;11.70;99.90
22795;DHT22;11564;50.920;11.612;2023-04-29T01:17:30;11.60;99.90
22795;DHT22;11564;50.920;11.612;2023-04-29T01:19:55;11.60;99.90
22795;DHT22;11564;50.920;11.612;2023-04-29T01:22:22;11.60;99.90
22795;DHT22;11564;50.920;11.612;2023-04-29T01:24:48;11.60;99.90
22795;DHT22;11564;50.920;11.612;2023-04-29T01:29:52;11.60;99.90
22795;DHT22;11564;50.920;11.612;2023-04-29T01:32:41;11.60;99.90
22795;DHT22;11564;50.920;11.612;2023-04-29T01:35:15;11.60;99.90
22795;DHT22;11564;50.920;11.612;2023-04-29T01:37:48;11.60;99.90
22795;DHT22;11564;50.920;11.612;2023-04-29T01:40:22;11.50;99.90
22795;DHT22;11564;50.920;11.612;2023-04-29T01:42:54;11.50;99.90
22795;DHT22;11564;50.920;11.612;2023-04-29T01:45:20;11.50;99.90
22795;DHT22;11564;50.920;11.612;2023-04-29T01:47:46;11.40;99.90
22795;DHT22;11564;50.920;11.612;2023-04-29T01:50:13;11.50;99.90
22795;DHT22;11564;50.920;11.612;2023-04-29T01:52:38;11.40;99.90
22795;DHT22;11564;50.920;11.612;2023-04-29T01:55:04;11.40;99.90
22795;DHT22;11564;50.920;11.612;2023-04-29T01:57:30;11.40;99.90
22795;DHT22;11564;50.920;11.612;2023-04-29T01:59:55;11.40;99.90
22795;DHT22;11564;50.920;11.612;2023-04-29T02:02:21;11.40;99.90
22795;DHT22;11564;50.920;11.612;2023-04-29T02:04:47;11.30;99.90
22795;DHT22;11564;50.920;11.612;2023-04-29T02:07:13;11.30;99.90
22795;DHT22;11564;50.920;11.612;2023-04-29T02:09:39;11.30;99.90
22795;DHT22;11564;50.920;11.612;2023-04-29T02:12:04;11.30;99.90
22795;DHT22;11564;50.920;11.612;2023-04-29T02:14:30;11.30;99.90
22795;DHT22;11564;50.920;11.612;2023-04-29T02:16:57;11.30;99.90
22795;DHT22;11564;50.920;11.612;2023-04-29T02:19:22;11.30;99.90
22795;DHT22;11564;50.920;11.612;2023-04-29T02:21:48;11.10;99.90
22795;DHT22;11564;50.920;11.612;2023-04-29T02:24:13;11.10;99.90
22795;DHT22;11564;50.920;11.612;2023-04-29T02:26:39;11.10;99.90
22795;DHT22;11564;50.920;11.612;2023-04-29T02:29:05;11.10;99.90
22795;DHT22;11564;50.920;11.612;2023-04-29T02:31:30;11.10;99.90
22795;DHT22;11564;50.920;11.612;2023-04-29T02:33:56;11.10;99.90
22795;DHT22;11564;50.920;11.612;2023-04-29T02:36:22;11.10;99.90
22795;DHT22;11564;50.920;11.612;2023-04-29T02:38:48;11.00;99.90
22795;DHT22;11564;50.920;11.612;2023-04-29T02:41:18;11.10;99.90
22795;DHT22;11564;50.920;11.612;2023-04-29T02:43:43;11.10;99.90
22795;DHT22;11564;50.920;11.612;2023-04-29T02:46:09;11.10;99.90
22795;DHT22;11564;50.920;11.612;2023-04-29T02:48:35;11.10;99.90
22795;DHT22;11564;50.920;11.612;2023-04-29T02:51:01;11.00;99.90
22795;DHT22;11564;50.920;11.612;2023-04-29T02:53:26;10.90;99.90
22795;DHT22;11564;50.920;11.612;2023-04-29T02:55:52;10.80;99.90
22795;DHT22;11564;50.920;11.612;2023-04-29T02:58:17;10.70;99.90
22795;DHT22;11564;50.920;11.612;2023-04-29T03:00:43;10.70;99.90
22795;DHT22;11564;50.920;11.612;2023-04-29T03:03:08;10.60;99.90
22795;DHT22;11564;50.920;11.612;2023-04-29T03:05:34;10.60;99.90
22795;DHT22;11564;50.920;11.612;2023-04-29T03:08:00;10.70;99.90
22795;DHT22;11564;50.920;11.612;2023-04-29T03:10:26;10.70;99.90
22795;DHT22;11564;50.920;11.612;2023-04-29T03:12:51;10.70;99.90
22795;DHT22;11564;50.920;11.612;2023-04-29T03:15:17;10.70;99.90
22795;DHT22;11564;50.920;11.612;2023-04-29T03:17:42;10.80;99.90
22795;DHT22;11564;50.920;11.612;2023-04-29T03:20:10;10.90;99.90
22795;DHT22;11564;50.920;11.612;2023-04-29T03:22:35;11.10;99.90
22795;DHT22;11564;50.920;11.612;2023-04-29T03:25:01;11.30;99.90
22795;DHT22;11564;50.920;11.612;2023-04-29T03:27:26;11.40;99.90
22795;DHT22;11564;50.920;11.612;2023-04-29T03:29:52;11.40;99.90
22795;DHT22;11564;50.920;11.612;2023-04-29T03:32:18;11.50;99.90
22795;DHT22;11564;50.920;11.612;2023-04-29T03:34:43;11.60;99.90
22795;DHT22;11564;50.920;11.612;2023-04-29T03:37:09;11.70;99.90
22795;DHT22;11564;50.920;11.612;2023-04-29T03:39:34;11.70;99.90
22795;DHT22;11564;50.920;11.612;2023-04-29T03:42:00;11.80;99.90
22795;DHT22;11564;50.920;11.612;2023-04-29T03:44:25;11.70;99.90
22795;DHT22;11564;50.920;11.612;2023-04-29T03:46:51;11.70;99.90
22795;DHT22;11564;50.920;11.612;2023-04-29T03:49:17;11.70;99.90
22795;DHT22;11564;50.920;11.612;2023-04-29T03:51:42;11.70;99.90
22795;DHT22;11564;50.920;11.612;2023-04-29T03:54:10;11.70;99.90
22795;DHT22;11564;50.920;11.612;2023-04-29T03:56:35;11.70;99.90
22795;DHT22;11564;50.920;11.612;2023-04-29T03:59:01;11.70;99.90
22795;DHT22;11564;50.920;11.612;2023-04-29T04:01:26;11.40;99.90
22795;DHT22;11564;50.920;11.612;2023-04-29T04:03:52;11.00;99.90
22795;DHT22;11564;50.920;11.612;2023-04-29T04:06:17;10.90;99.90
22795;DHT22;11564;50.920;11.612;2023-04-29T04:08:43;10.70;99.90
22795;DHT22;11564;50.920;11.612;2023-04-29T04:11:08;10.80;99.90
22795;DHT22;11564;50.920;11.612;2023-04-29T04:13:34;10.80;99.90
22795;DHT22;11564;50.920;11.612;2023-04-29T04:16:00;10.80;99.90
22795;DHT22;11564;50.920;11.612;2023-04-29T04:18:26;10.80;99.90
22795;DHT22;11564;50.920;11.612;2023-04-29T04:20:52;10.90;99.90
22795;DHT22;11564;50.920;11.612;2023-04-29T04:23:17;10.90;99.90
22795;DHT22;11564;50.920;11.612;2023-04-29T04:25:46;10.80;99.90
22795;DHT22;11564;50.920;11.612;2023-04-29T04:28:12;10.90;99.90
22795;DHT22;11564;50.920;11.612;2023-04-29T04:30:37;11.00;99.90
22795;DHT22;11564;50.920;11.612;2023-04-29T04:33:03;11.00;99.90
22795;DHT22;11564;50.920;11.612;2023-04-29T04:35:28;11.10;99.90
22795;DHT22;11564;50.920;11.612;2023-04-29T04:37:54;11.10;99.90
22795;DHT22;11564;50.920;11.612;2023-04-29T04:40:19;11.10;99.90
22795;DHT22;11564;50.920;11.612;2023-04-29T04:42:45;11.10;99.90
22795;DHT22;11564;50.920;11.612;2023-04-29T04:45:10;11.20;99.90
22795;DHT22;11564;50.920;11.612;2023-04-29T04:47:36;11.30;99.90
22795;DHT22;11564;50.920;11.612;2023-04-29T04:50:02;11.20;99.90
22795;DHT22;11564;50.920;11.612;2023-04-29T04:52:28;11.20;99.90
22795;DHT22;11564;50.920;11.612;2023-04-29T04:54:54;11.40;99.90
22795;DHT22;11564;50.920;11.612;2023-04-29T04:57:19;11.40;99.90
22795;DHT22;11564;50.920;11.612;2023-04-29T04:59:45;11.40;99.90
22795;DHT22;11564;50.920;11.612;2023-04-29T05:02:10;11.50;99.90
22795;DHT22;11564;50.920;11.612;2023-04-29T05:04:36;11.60;99.90
22795;DHT22;11564;50.920;11.612;2023-04-29T05:07:01;11.70;99.90
22795;DHT22;11564;50.920;11.612;2023-04-29T05:09:27;11.80;99.90
22795;DHT22;11564;50.920;11.612;2023-04-29T05:11:52;11.90;99.90
22795;DHT22;11564;50.920;11.612;2023-04-29T05:14:18;11.90;99.90
22795;DHT22;11564;50.920;11.612;2023-04-29T05:16:44;12.00;99.90
22795;DHT22;11564;50.920;11.612;2023-04-29T05:19:10;12.00;99.90
22795;DHT22;11564;50.920;11.612;2023-04-29T05:21:36;11.80;99.90
22795;DHT22;11564;50.920;11.612;2023-04-29T05:24:02;11.90;99.90
22795;DHT22;11564;50.920;11.612;2023-04-29T05:26:28;11.80;99.90
22795;DHT22;11564;50.920;11.612;2023-04-29T05:28:53;11.80;99.90
22795;DHT22;11564;50.920;11.612;2023-04-29T05:31:19;11.70;99.90
22795;DHT22;11564;50.920;11.612;2023-04-29T05:33:45;11.80;99.90
22795;DHT22;11564;50.920;11.612;2023-04-29T05:36:10;11.80;99.90
22795;DHT22;11564;50.920;11.612;2023-04-29T05:38:36;11.80;99.90
22795;DHT22;11564;50.920;11.612;2023-04-29T05:41:02;11.90;99.90
22795;DHT22;11564;50.920;11.612;2023-04-29T05:43:28;11.90;99.90
22795;DHT22;11564;50.920;11.612;2023-04-29T05:45:54;11.90;99.90
22795;DHT22;11564;50.920;11.612;2023-04-29T05:48:20;12.00;99.90
22795;DHT22;11564;50.920;11.612;2023-04-29T05:50:46;12.10;99.90
22795;DHT22;11564;50.920;11.612;2023-04-29T05:53:12;12.10;99.90
22795;DHT22;11564;50.920;11.612;2023-04-29T05:55:38;12.10;99.90
22795;DHT22;11564;50.920;11.612;2023-04-29T05:58:04;12.20;99.90
22795;DHT22;11564;50.920;11.612;2023-04-29T06:00:29;12.40;99.90
22795;DHT22;11564;50.920;11.612;2023-04-29T06:02:56;12.50;99.90
22795;DHT22;11564;50.920;11.612;2023-04-29T06:05:21;12.50;99.90
22795;DHT22;11564;50.920;11.612;2023-04-29T06:07:47;12.60;99.90
22795;DHT22;11564;50.920;11.612;2023-04-29T06:10:13;12.60;99.90
22795;DHT22;11564;50.920;11.612;2023-04-29T06:12:39;12.50;99.90
22795;DHT22;11564;50.920;11.612;2023-04-29T06:15:05;12.50;99.90
22795;DHT22;11564;50.920;11.612;2023-04-29T06:17:30;12.60;99.90
22795;DHT22;11564;50.920;11.612;2023-04-29T06:19:56;12.50;99.90
22795;DHT22;11564;50.920;11.612;2023-04-29T06:22:22;12.50;99.90
22795;DHT22;11564;50.920;11.612;2023-04-29T06:24:47;12.40;99.90
22795;DHT22;11564;50.920;11.612;2023-04-29T06:27:16;12.40;99.90
22795;DHT22;11564;50.920;11.612;2023-04-29T06:29:42;12.50;99.90
22795;DHT22;11564;50.920;11.612;2023-04-29T06:32:08;12.70;99.90
22795;DHT22;11564;50.920;11.612;2023-04-29T06:34:34;12.50;99.90
22795;DHT22;11564;50.920;11.612;2023-04-29T06:37:00;12.60;99.90
22795;DHT22;11564;50.920;11.612;2023-04-29T06:39:25;12.70;99.90
22795;DHT22;11564;50.920;11.612;2023-04-29T06:41:51;12.50;99.90
22795;DHT22;11564;50.920;11.612;2023-04-29T06:44:17;12.50;99.90
22795;DHT22;11564;50.920;11.612;2023-04-29T06:46:43;12.60;99.90
22795;DHT22;11564;50.920;11.612;2023-04-29T06:49:09;12.50;99.90
22795;DHT22;11564;50.920;11.612;2023-04-29T06:51:35;12.30;99.90
22795;DHT22;11564;50.920;11.612;2023-04-29T06:54:01;12.20;99.90
22795;DHT22;11564;50.920;11.612;2023-04-29T06:56:26;12.10;99.90
22795;DHT22;11564;50.920;11.612;2023-04-29T06:58:52;12.10;99.90
22795;DHT22;11564;50.920;11.612;2023-04-29T07:01:17;12.00;99.90
22795;DHT22;11564;50.920;11.612;2023-04-29T07:03:43;12.00;99.90
22795;DHT22;11564;50.920;11.612;2023-04-29T07:06:09;12.10;99.90
22795;DHT22;11564;50.920;11.612;2023-04-29T07:08:34;12.20;99.90
22795;DHT22;11564;50.920;11.612;2023-04-29T07:11:00;12.20;99.90
22795;DHT22;11564;50.920;11.612;2023-04-29T07:13:25;12.30;99.90
22795;DHT22;11564;50.920;11.612;2023-04-29T07:15:51;12.60;99.90
22795;DHT22;11564;50.920;11.612;2023-04-29T07:18:16;12.70;99.90
22795;DHT22;11564;50.920;11.612;2023-04-29T07:20:42;12.60;99.90
22795;DHT22;11564;50.920;11.612;2023-04-29T07:23:08;12.70;99.90
22795;DHT22;11564;50.920;11.612;2023-04-29T07:25:34;12.40;99.90
22795;DHT22;11564;50.920;11.612;2023-04-29T07:28:00;12.30;99.90
22795;DHT22;11564;50.920;11.612;2023-04-29T07:30:25;12.20;99.90
22795;DHT22;11564;50.920;11.612;2023-04-29T07:32:51;12.30;99.90
22795;DHT22;11564;50.920;11.612;2023-04-29T07:35:16;12.30;99.90
22795;DHT22;11564;50.920;11.612;2023-04-29T07:37:42;12.30;99.90
22795;DHT22;11564;50.920;11.612;2023-04-29T07:40:08;12.40;99.90
22795;DHT22;11564;50.920;11.612;2023-04-29T07:42:34;12.20;99.90
22795;DHT22;11564;50.920;11.612;2023-04-29T07:44:59;12.10;99.90
22795;DHT22;11564;50.920;11.612;2023-04-29T07:47:25;12.10;99.90
22795;DHT22;11564;50.920;11.612;2023-04-29T07:49:51;12.00;99.90
22795;DHT22;11564;50.920;11.612;2023-04-29T07:52:17;11.90;99.90
22795;DHT22;11564;50.920;11.612;2023-04-29T07:54:42;11.80;99.90
22795;DHT22;11564;50.920;11.612;2023-04-29T07:57:08;12.00;99.90
22795;DHT22;11564;50.920;11.612;2023-04-29T07:59:33;12.30;99.90
22795;DHT22;11564;50.920;11.612;2023-04-29T08:01:59;12.70;99.90
22795;DHT22;11564;50.920;11.612;2023-04-29T08:04:24;13.00;99.90
22795;DHT22;11564;50.920;11.612;2023-04-29T08:06:50;13.20;99.90
22795;DHT22;11564;50.920;11.612;2023-04-29T08:09:16;13.40;99.90
22795;DHT22;11564;50.920;11.612;2023-04-29T08:11:41;13.40;99.90
22795;DHT22;11564;50.920;11.612;2023-04-29T08:14:07;13.40;99.90
22795;DHT22;11564;50.920;11.612;2023-04-29T08:16:33;13.40;99.90
22795;DHT22;11564;50.920;11.612;2023-04-29T08:18:58;13.20;99.90
22795;DHT22;11564;50.920;11.612;2023-04-29T08:21:24;13.10;99.90
22795;DHT22;11564;50.920;11.612;2023-04-29T08:23:49;13.10;99.90
22795;DHT22;11564;50.920;11.612;2023-04-29T08:26:15;13.10;99.90
22795;DHT22;11564;50.920;11.612;2023-04-29T08:28:40;13.00;99.90
22795;DHT22;11564;50.920;11.612;2023-04-29T08:31:06;13.10;99.90
22795;DHT22;11564;50.920;11.612;2023-04-29T08:33:32;13.40;99.90
22795;DHT22;11564;50.920;11.612;2023-04-29T08:35:58;13.40;99.90
22795;DHT22;11564;50.920;11.612;2023-04-29T08:38:28;13.40;99.90
22795;DHT22;11564;50.920;11.612;2023-04-29T08:40:53;13.00;99.90
22795;DHT22;11564;50.920;11.612;2023-04-29T08:43:20;13.10;99.90
22795;DHT22;11564;50.920;11.612;2023-04-29T08:45:47;13.20;99.90
22795;DHT22;11564;50.920;11.612;2023-04-29T08:48:12;13.20;99.90
22795;DHT22;11564;50.920;11.612;2023-04-29T08:50:40;13.20;99.90
22795;DHT22;11564;50.920;11.612;2023-04-29T08:53:08;13.40;99.90
22795;DHT22;11564;50.920;11.612;2023-04-29T08:55:35;13.40;99.90
22795;DHT22;11564;50.920;11.612;2023-04-29T08:58:01;13.50;99.90
22795;DHT22;11564;50.920;11.612;2023-04-29T09:00:27;13.60;99.90
22795;DHT22;11564;50.920;11.612;2023-04-29T09:02:55;13.40;99.90
22795;DHT22;11564;50.920;11.612;2023-04-29T09:05:21;13.60;99.90
22795;DHT22;11564;50.920;11.612;2023-04-29T09:07:49;13.70;99.90
22795;DHT22;11564;50.920;11.612;2023-04-29T09:10:15;13.80;99.90
22795;DHT22;11564;50.920;11.612;2023-04-29T09:12:41;13.80;99.90
22795;DHT22;11564;50.920;11.612;2023-04-29T09:15:06;13.50;99.90
22795;DHT22;11564;50.920;11.612;2023-04-29T09:17:45;13.40;99.90
22795;DHT22;11564;50.920;11.612;2023-04-29T09:22:46;13.40;99.90
22795;DHT22;11564;50.920;11.612;2023-04-29T09:25:11;13.60;99.90
22795;DHT22;11564;50.920;11.612;2023-04-29T09:27:37;13.60;99.90
22795;DHT22;11564;50.920;11.612;2023-04-29T09:30:03;13.50;99.90
22795;DHT22;11564;50.920;11.612;2023-04-29T09:32:28;13.50;99.90
22795;DHT22;11564;50.920;11.612;2023-04-29T09:34:54;13.60;99.90
22795;DHT22;11564;50.920;11.612;2023-04-29T09:37:23;13.50;99.90
22795;DHT22;11564;50.920;11.612;2023-04-29T09:39:50;13.50;99.90
22795;DHT22;11564;50.920;11.612;2023-04-29T09:42:15;13.40;99.90
22795;DHT22;11564;50.920;11.612;2023-04-29T09:44:41;13.40;99.90
22795;DHT22;11564;50.920;11.612;2023-04-29T09:47:08;13.60;99.90
22795;DHT22;11564;50.920;11.612;2023-04-29T09:49:36;13.80;99.90
22795;DHT22;11564;50.920;11.612;2023-04-29T09:52:04;13.80;99.90
22795;DHT22;11564;50.920;11.612;2023-04-29T09:54:31;13.60;99.90
22795;DHT22;11564;50.920;11.612;2023-04-29T09:56:58;13.40;99.90
22795;DHT22;11564;50.920;11.612;2023-04-29T09:59:24;13.60;99.90
22795;DHT22;11564;50.920;11.612;2023-04-29T10:01:53;13.50;99.90
22795;DHT22;11564;50.920;11.612;2023-04-29T10:04:20;13.40;99.90
22795;DHT22;11564;50.920;11.612;2023-04-29T10:06:47;13.40;99.90
22795;DHT22;11564;50.920;11.612;2023-04-29T10:09:13;13.50;99.90
22795;DHT22;11564;50.920;11.612;2023-04-29T10:11:40;13.30;99.90
22795;DHT22;11564;50.920;11.612;2023-04-29T10:14:06;13.50;99.90
22795;DHT22;11564;50.920;11.612;2023-04-29T10:16:33;13.50;99.90
22795;DHT22;11564;50.920;11.612;2023-04-29T10:19:03;13.80;99.90
22795;DHT22;11564;50.920;11.612;2023-04-29T10:21:31;13.90;99.90
22795;DHT22;11564;50.920;11.612;2023-04-29T10:23:58;13.90;99.90
22795;DHT22;11564;50.920;11.612;2023-04-29T10:26:25;13.70;99.90
22795;DHT22;11564;50.920;11.612;2023-04-29T10:28:51;13.80;99.90
22795;DHT22;11564;50.920;11.612;2023-04-29T10:31:18;13.90;99.90
22795;DHT22;11564;50.920;11.612;2023-04-29T10:33:45;13.60;99.90
22795;DHT22;11564;50.920;11.612;2023-04-29T10:36:12;13.70;99.90
22795;DHT22;11564;50.920;11.612;2023-04-29T10:38:38;13.90;99.90
22795;DHT22;11564;50.920;11.612;2023-04-29T10:41:28;14.00;99.90
22795;DHT22;11564;50.920;11.612;2023-04-29T10:43:53;13.90;99.90
22795;DHT22;11564;50.920;11.612;2023-04-29T10:46:23;14.10;99.90
22795;DHT22;11564;50.920;11.612;2023-04-29T10:48:51;14.30;99.90
22795;DHT22;11564;50.920;11.612;2023-04-29T10:53:59;13.90;99.90
22795;DHT22;11564;50.920;11.612;2023-04-29T10:56:37;13.60;99.90
22795;DHT22;11564;50.920;11.612;2023-04-29T10:59:03;13.50;99.90
22795;DHT22;11564;50.920;11.612;2023-04-29T11:01:42;13.50;99.90
22795;DHT22;11564;50.920;11.612;2023-04-29T11:04:08;13.60;99.90
22795;DHT22;11564;50.920;11.612;2023-04-29T11:11:38;13.10;99.90
22795;DHT22;11564;50.920;11.612;2023-04-29T11:14:04;13.30;99.90
22795;DHT22;11564;50.920;11.612;2023-04-29T11:16:32;13.20;99.90
22795;DHT22;11564;50.920;11.612;2023-04-29T11:19:07;13.20;99.90
22795;DHT22;11564;50.920;11.612;2023-04-29T11:21:34;13.00;99.90
22795;DHT22;11564;50.920;11.612;2023-04-29T11:24:00;12.90;99.90
22795;DHT22;11564;50.920;11.612;2023-04-29T11:26:27;13.00;99.90
22795;DHT22;11564;50.920;11.612;2023-04-29T11:28:52;12.90;99.90
22795;DHT22;11564;50.920;11.612;2023-04-29T11:31:18;12.80;99.90
22795;DHT22;11564;50.920;11.612;2023-04-29T11:33:43;12.80;99.90
22795;DHT22;11564;50.920;11.612;2023-04-29T11:36:10;12.70;99.90
22795;DHT22;11564;50.920;11.612;2023-04-29T11:38:38;12.50;99.90
22795;DHT22;11564;50.920;11.612;2023-04-29T11:41:04;12.50;99.90
22795;DHT22;11564;50.920;11.612;2023-04-29T11:43:29;12.50;99.90
22795;DHT22;11564;50.920;11.612;2023-04-29T11:45:55;12.40;99.90
22795;DHT22;11564;50.920;11.612;2023-04-29T11:48:24;12.20;99.90
22795;DHT22;11564;50.920;11.612;2023-04-29T11:50:53;12.10;99.90
22795;DHT22;11564;50.920;11.612;2023-04-29T11:53:21;11.90;99.90
22795;DHT22;11564;50.920;11.612;2023-04-29T11:55:48;11.80;99.90
22795;DHT22;11564;50.920;11.612;2023-04-29T11:58:14;11.90;99.90
22795;DHT22;11564;50.920;11.612;2023-04-29T12:00:40;11.70;99.90
22795;DHT22;11564;50.920;11.612;2023-04-29T12:03:13;11.60;99.90
22795;DHT22;11564;50.920;11.612;2023-04-29T12:05:45;11.60;99.90
22795;DHT22;11564;50.920;11.612;2023-04-29T12:08:10;11.70;99.90
22795;DHT22;11564;50.920;11.612;2023-04-29T12:10:36;11.60;99.90
22795;DHT22;11564;50.920;11.612;2023-04-29T12:13:02;11.60;99.90
22795;DHT22;11564;50.920;11.612;2023-04-29T12:15:28;11.50;99.90
22795;DHT22;11564;50.920;11.612;2023-04-29T12:17:53;11.60;99.90
22795;DHT22;11564;50.920;11.612;2023-04-29T12:20:19;11.60;99.90
22795;DHT22;11564;50.920;11.612;2023-04-29T12:22:45;11.60;99.90
22795;DHT22;11564;50.920;11.612;2023-04-29T12:25:11;11.70;99.90
22795;DHT22;11564;50.920;11.612;2023-04-29T12:27:38;11.60;99.90
22795;DHT22;11564;50.920;11.612;2023-04-29T12:30:05;11.70;99.90
22795;DHT22;11564;50.920;11.612;2023-04-29T12:32:32;11.60;99.90
22795;DHT22;11564;50.920;11.612;2023-04-29T12:34:57;11.70;99.90
22795;DHT22;11564;50.920;11.612;2023-04-29T12:37:23;11.80;99.90
22795;DHT22;11564;50.920;11.612;2023-04-29T12:39:49;11.80;99.90
22795;DHT22;11564;50.920;11.612;2023-04-29T12:42:14;11.90;99.90
22795;DHT22;11564;50.920;11.612;2023-04-29T12:44:43;11.80;99.90
22795;DHT22;11564;50.920;11.612;2023-04-29T12:47:09;11.80;99.90
22795;DHT22;11564;50.920;11.612;2023-04-29T12:49:35;11.90;99.90
22795;DHT22;11564;50.920;11.612;2023-04-29T12:52:01;11.80;99.90
22795;DHT22;11564;50.920;11.612;2023-04-29T12:54:28;11.80;99.90
22795;DHT22;11564;50.920;11.612;2023-04-29T12:56:54;11.90;99.90
22795;DHT22;11564;50.920;11.612;2023-04-29T12:59:19;12.10;99.90
22795;DHT22;11564;50.920;11.612;2023-04-29T13:01:45;12.10;99.90
22795;DHT22;11564;50.920;11.612;2023-04-29T13:04:10;12.10;99.90
22795;DHT22;11564;50.920;11.612;2023-04-29T13:06:36;12.20;99.90
22795;DHT22;11564;50.920;11.612;2023-04-29T13:09:07;12.20;99.90
22795;DHT22;11564;50.920;11.612;2023-04-29T13:11:36;12.30;99.90
22795;DHT22;11564;50.920;11.612;2023-04-29T13:14:02;12.60;99.90
22795;DHT22;11564;50.920;11.612;2023-04-29T13:16:28;12.40;99.90
22795;DHT22;11564;50.920;11.612;2023-04-29T13:18:53;12.50;99.90
22795;DHT22;11564;50.920;11.612;2023-04-29T13:21:19;12.50;99.90
22795;DHT22;11564;50.920;11.612;2023-04-29T13:23:45;12.70;99.90
22795;DHT22;11564;50.920;11.612;2023-04-29T13:26:10;12.70;99.90
22795;DHT22;11564;50.920;11.612;2023-04-29T13:28:36;12.80;99.90
22795;DHT22;11564;50.920;11.612;2023-04-29T13:31:02;12.80;99.90
22795;DHT22;11564;50.920;11.612;2023-04-29T13:33:27;12.80;99.90
22795;DHT22;11564;50.920;11.612;2023-04-29T13:35:53;12.70;99.90
22795;DHT22;11564;50.920;11.612;2023-04-29T13:38:18;12.60;99.90
22795;DHT22;11564;50.920;11.612;2023-04-29T13:40:44;12.80;99.90
22795;DHT22;11564;50.920;11.612;2023-04-29T13:43:10;12.80;99.90
22795;DHT22;11564;50.920;11.612;2023-04-29T13:45:35;13.10;99.90
22795;DHT22;11564;50.920;11.612;2023-04-29T13:48:01;13.30;99.90
22795;DHT22;11564;50.920;11.612;2023-04-29T13:50:26;13.30;99.90
22795;DHT22;11564;50.920;11.612;2023-04-29T13:52:52;13.30;99.90
22795;DHT22;11564;50.920;11.612;2023-04-29T13:55:17;13.50;99.90
22795;DHT22;11564;50.920;11.612;2023-04-29T13:57:43;13.40;99.90
22795;DHT22;11564;50.920;11.612;2023-04-29T14:00:09;13.20;99.90
22795;DHT22;11564;50.920;11.612;2023-04-29T14:02:35;13.10;99.90
22795;DHT22;11564;50.920;11.612;2023-04-29T14:05:01;12.90;99.90
22795;DHT22;11564;50.920;11.612;2023-04-29T14:07:26;12.70;99.90
22795;DHT22;11564;50.920;11.612;2023-04-29T14:09:52;12.70;99.90
22795;DHT22;11564;50.920;11.612;2023-04-29T14:12:17;12.60;99.90
22795;DHT22;11564;50.920;11.612;2023-04-29T14:14:43;12.60;99.90
22795;DHT22;11564;50.920;11.612;2023-04-29T14:17:08;12.40;99.90
22795;DHT22;11564;50.920;11.612;2023-04-29T14:19:34;12.30;99.90
22795;DHT22;11564;50.920;11.612;2023-04-29T14:22:00;12.30;99.90
22795;DHT22;11564;50.920;11.612;2023-04-29T14:24:25;12.40;99.90
22795;DHT22;11564;50.920;11.612;2023-04-29T14:26:51;12.40;99.90
22795;DHT22;11564;50.920;11.612;2023-04-29T14:29:17;12.50;99.90
22795;DHT22;11564;50.920;11.612;2023-04-29T14:31:43;12.60;99.90
22795;DHT22;11564;50.920;11.612;2023-04-29T14:34:08;12.80;99.90
22795;DHT22;11564;50.920;11.612;2023-04-29T14:36:34;12.90;99.90
22795;DHT22;11564;50.920;11.612;2023-04-29T14:39:00;12.90;99.90
22795;DHT22;11564;50.920;11.612;2023-04-29T14:41:26;12.90;99.90
22795;DHT22;11564;50.920;11.612;2023-04-29T14:43:52;12.90;99.90
22795;DHT22;11564;50.920;11.612;2023-04-29T14:46:18;13.10;99.90
22795;DHT22;11564;50.920;11.612;2023-04-29T14:48:44;13.10;99.90
22795;DHT22;11564;50.920;11.612;2023-04-29T14:51:10;13.10;99.90
22795;DHT22;11564;50.920;11.612;2023-04-29T14:53:36;13.20;99.90
22795;DHT22;11564;50.920;11.612;2023-04-29T14:56:01;13.20;99.90
22795;DHT22;11564;50.920;11.612;2023-04-29T14:58:27;13.20;99.90
22795;DHT22;11564;50.920;11.612;2023-04-29T15:00:53;13.10;99.90
22795;DHT22;11564;50.920;11.612;2023-04-29T15:03:19;13.00;99.90
22795;DHT22;11564;50.920;11.612;2023-04-29T15:05:45;12.70;99.90
22795;DHT22;11564;50.920;11.612;2023-04-29T15:08:10;12.80;99.90
22795;DHT22;11564;50.920;11.612;2023-04-29T15:10:36;12.80;99.90
22795;DHT22;11564;50.920;11.612;2023-04-29T15:13:01;12.70;99.90
22795;DHT22;11564;50.920;11.612;2023-04-29T15:15:27;12.40;99.90
22795;DHT22;11564;50.920;11.612;2023-04-29T15:17:53;12.50;99.90
22795;DHT22;11564;50.920;11.612;2023-04-29T15:20:19;12.60;99.90
22795;DHT22;11564;50.920;11.612;2023-04-29T15:22:44;12.50;99.90
22795;DHT22;11564;50.920;11.612;2023-04-29T15:25:10;12.50;99.90
22795;DHT22;11564;50.920;11.612;2023-04-29T15:27:36;12.60;99.90